createdAt,value
2022-12-18T00:00:42.706Z,37.40
2022-12-18T00:03:10.084Z,38.63
2022-12-18T00:05:36.998Z,14.20
2022-12-18T00:08:04.304Z,39.73
2022-12-18T00:10:36.468Z,41.13
2022-12-18T00:13:06.639Z,27.87
2022-12-18T00:15:37.257Z,28.73
2022-12-18T00:18:04.212Z,24.20
2022-12-18T00:20:31.084Z,29.87
2022-12-18T00:22:58.037Z,45.57
2022-12-18T00:25:25.220Z,44.73
2022-12-18T00:27:52.120Z,57.23
2022-12-18T00:30:19.188Z,37.70
2022-12-18T00:32:46.109Z,42.80
2022-12-18T00:35:12.950Z,40.20
2022-12-18T00:37:39.817Z,41.63
2022-12-18T00:40:08.128Z,39.30
2022-12-18T00:42:54.701Z,38.90
2022-12-18T00:45:21.580Z,38.53
2022-12-18T00:47:48.449Z,36.73
2022-12-18T00:50:17.455Z,41.53
2022-12-18T00:52:44.341Z,38.23
2022-12-18T00:55:11.837Z,41.83
2022-12-18T00:57:39.346Z,33.53
2022-12-18T01:00:09.801Z,30.90
2022-12-18T01:02:36.835Z,32.77
2022-12-18T01:05:03.983Z,21.33
2022-12-18T01:07:31.088Z,32.17
2022-12-18T01:09:58.027Z,33.63
2022-12-18T01:12:24.998Z,41.17
2022-12-18T01:14:52.337Z,18.53
2022-12-18T01:17:19.240Z,19.57
2022-12-18T01:19:47.988Z,17.43
2022-12-18T01:22:14.943Z,35.80
2022-12-18T01:24:41.890Z,44.07
2022-12-18T01:27:08.785Z,43.07
2022-12-18T01:29:35.666Z,42.80
2022-12-18T01:32:03.242Z,36.40
2022-12-18T01:34:30.174Z,33.20
2022-12-18T01:36:57.066Z,28.43
2022-12-18T01:39:23.939Z,27.17
2022-12-18T01:42:02.995Z,19.83
2022-12-18T01:44:56.257Z,49.83
2022-12-18T01:47:26.073Z,57.60
2022-12-18T01:49:53.124Z,52.63
2022-12-18T01:52:20.393Z,48.60
2022-12-18T01:54:48.033Z,50.20
2022-12-18T01:57:15.083Z,50.53
2022-12-18T01:59:45.793Z,41.27
2022-12-18T02:02:13.336Z,47.23
2022-12-18T02:04:47.828Z,52.10
2022-12-18T02:07:23.903Z,48.97
2022-12-18T02:09:57.096Z,51.77
2022-12-18T02:12:26.781Z,54.97
2022-12-18T02:15:00.662Z,56.77
2022-12-18T02:17:34.973Z,46.53
2022-12-18T02:20:14.516Z,46.60
2022-12-18T02:22:50.662Z,32.43
2022-12-18T02:25:33.161Z,37.47
2022-12-18T02:28:02.173Z,48.23
2022-12-18T02:30:32.177Z,42.17
2022-12-18T02:33:00.972Z,22.17
2022-12-18T02:35:31.412Z,40.33
2022-12-18T02:37:59.113Z,31.50
2022-12-18T02:40:28.199Z,53.03
2022-12-18T02:42:55.087Z,59.10
2022-12-18T02:45:22.605Z,49.63
2022-12-18T02:47:51.072Z,48.07
2022-12-18T02:50:23.239Z,48.40
2022-12-18T02:53:03.154Z,44.87
2022-12-18T02:55:41.859Z,56.30
2022-12-18T02:58:16.842Z,56.90
2022-12-18T03:00:49.456Z,36.23
2022-12-18T03:03:24.735Z,29.27
2022-12-18T03:05:54.069Z,55.47
2022-12-18T03:08:24.950Z,50.33
2022-12-18T03:10:58.225Z,49.57
2022-12-18T03:13:28.125Z,49.87
2022-12-18T03:15:57.842Z,43.13
2022-12-18T03:18:28.827Z,40.60
2022-12-18T03:20:59.088Z,45.10
2022-12-18T03:23:28.405Z,48.93
2022-12-18T03:26:04.407Z,36.83
2022-12-18T03:28:38.917Z,39.60
2022-12-18T03:31:10.452Z,34.27
2022-12-18T03:33:42.421Z,30.10
2022-12-18T03:36:09.727Z,39.07
2022-12-18T03:38:36.707Z,38.10
2022-12-18T03:41:11.910Z,36.27
2022-12-18T03:43:48.361Z,41.70
2022-12-18T03:46:23.578Z,24.80
2022-12-18T03:48:57.675Z,22.43
2022-12-18T03:51:28.266Z,45.50
2022-12-18T03:53:59.173Z,25.17
2022-12-18T03:56:29.150Z,8.17
2022-12-18T03:58:57.310Z,21.20
2022-12-18T04:01:31.679Z,18.17
2022-12-18T04:04:01.015Z,43.67
2022-12-18T04:06:28.171Z,40.50
2022-12-18T04:08:55.207Z,42.70
2022-12-18T04:11:22.099Z,35.33
2022-12-18T04:13:48.956Z,55.00
2022-12-18T04:16:16.021Z,41.77
2022-12-18T04:18:43.292Z,23.40
2022-12-18T04:21:11.005Z,43.07
2022-12-18T04:23:38.289Z,35.50
2022-12-18T04:26:05.551Z,35.90
2022-12-18T04:28:32.403Z,29.83
2022-12-18T04:30:59.310Z,35.33
2022-12-18T04:33:26.222Z,29.93
2022-12-18T04:35:53.457Z,31.97
2022-12-18T04:38:20.321Z,32.67
2022-12-18T04:40:47.154Z,36.30
2022-12-18T04:43:14.146Z,41.30
2022-12-18T04:45:41.090Z,37.87
2022-12-18T04:48:08.105Z,36.23
2022-12-18T04:50:35.011Z,36.97
2022-12-18T04:53:02.245Z,45.60
2022-12-18T04:55:29.106Z,30.90
2022-12-18T04:57:56.001Z,46.30
2022-12-18T05:00:23.189Z,36.57
2022-12-18T05:02:50.236Z,34.07
2022-12-18T05:05:17.365Z,38.03
2022-12-18T05:07:44.233Z,39.97
2022-12-18T05:10:11.810Z,33.37
2022-12-18T05:12:58.180Z,23.67
2022-12-18T05:15:25.558Z,37.47
2022-12-18T05:17:52.420Z,28.90
2022-12-18T05:20:19.422Z,37.97
2022-12-18T05:22:46.479Z,16.27
2022-12-18T05:25:13.786Z,39.93
2022-12-18T05:27:40.653Z,42.07
2022-12-18T05:30:08.829Z,47.70
2022-12-18T05:32:35.776Z,48.10
2022-12-18T05:35:02.638Z,45.87
2022-12-18T05:37:29.493Z,47.83
2022-12-18T05:39:56.350Z,35.60
2022-12-18T05:42:23.897Z,54.37
2022-12-18T05:44:50.707Z,46.23
2022-12-18T05:47:17.659Z,55.23
2022-12-18T05:49:44.579Z,57.97
2022-12-18T05:52:11.472Z,53.03
2022-12-18T05:54:38.320Z,47.83
2022-12-18T05:57:05.156Z,59.13
2022-12-18T05:59:32.491Z,35.00
2022-12-18T06:01:59.466Z,54.27
2022-12-18T06:04:31.056Z,49.10
2022-12-18T06:06:57.914Z,42.80
2022-12-18T06:09:24.976Z,43.17
2022-12-18T06:11:52.937Z,23.60
2022-12-18T06:14:19.802Z,27.70
2022-12-18T06:16:47.017Z,23.53
2022-12-18T06:19:16.821Z,46.67
2022-12-18T06:21:43.829Z,42.60
2022-12-18T06:24:10.772Z,45.20
2022-12-18T06:26:38.304Z,61.77
2022-12-18T06:29:05.314Z,42.97
2022-12-18T06:31:32.726Z,49.93
2022-12-18T06:34:00.005Z,52.40
2022-12-18T06:36:30.934Z,39.83
2022-12-18T06:38:58.019Z,47.20
2022-12-18T06:41:24.873Z,48.77
2022-12-18T06:43:54.529Z,50.97
2022-12-18T06:46:23.774Z,50.10
2022-12-18T06:48:50.701Z,34.37
2022-12-18T06:51:22.055Z,25.50
2022-12-18T06:53:49.024Z,41.47
2022-12-18T06:56:15.923Z,45.60
2022-12-18T06:58:45.135Z,47.13
2022-12-18T07:01:13.355Z,54.97
2022-12-18T07:03:41.490Z,43.03
2022-12-18T07:06:15.400Z,47.37
2022-12-18T07:08:42.896Z,40.50
2022-12-18T07:11:09.759Z,42.77
2022-12-18T07:13:36.832Z,41.07
2022-12-18T07:16:16.059Z,45.10
2022-12-18T07:18:45.567Z,17.10
2022-12-18T07:21:16.368Z,26.33
2022-12-18T07:23:43.801Z,47.37
2022-12-18T07:26:12.849Z,46.23
2022-12-18T07:28:40.849Z,50.13
2022-12-18T07:31:10.610Z,43.33
2022-12-18T07:33:39.297Z,45.07
2022-12-18T07:36:08.407Z,36.57
2022-12-18T07:38:35.900Z,42.80
2022-12-18T07:41:03.773Z,41.30
2022-12-18T07:43:33.491Z,45.50
2022-12-18T07:46:00.395Z,22.73
2022-12-18T07:48:27.289Z,18.17
2022-12-18T07:50:54.184Z,16.87
2022-12-18T07:53:21.108Z,6.87
2022-12-18T07:56:24.902Z,43.23
2022-12-18T07:58:36.235Z,21.70
2022-12-18T08:01:07.482Z,26.23
2022-12-18T08:03:34.733Z,25.47
2022-12-18T08:06:01.838Z,25.13
2022-12-18T08:08:28.876Z,12.73
2022-12-18T08:10:55.994Z,13.43
2022-12-18T08:13:23.176Z,28.00
2022-12-18T08:15:57.851Z,43.07
2022-12-18T08:18:24.737Z,19.97
2022-12-18T08:20:51.657Z,20.20
2022-12-18T08:23:18.540Z,15.73
2022-12-18T08:25:45.491Z,13.93
2022-12-18T08:28:12.349Z,11.67
2022-12-18T08:30:39.303Z,35.33
2022-12-18T08:33:06.908Z,11.63
2022-12-18T08:35:41.101Z,9.00
2022-12-18T08:38:11.037Z,25.90
2022-12-18T08:40:37.928Z,18.40
2022-12-18T08:43:23.262Z,29.27
2022-12-18T08:45:50.350Z,44.17
2022-12-18T08:48:22.134Z,41.33
2022-12-18T08:50:55.284Z,35.00
2022-12-18T08:53:25.243Z,38.30
2022-12-18T08:55:52.174Z,35.07
2022-12-18T08:58:19.197Z,25.63
2022-12-18T09:00:46.072Z,35.33
2022-12-18T09:03:13.802Z,35.83
2022-12-18T09:05:44.002Z,33.40
2022-12-18T09:08:11.153Z,32.93
2022-12-18T09:10:43.548Z,20.20
2022-12-18T09:13:10.860Z,30.90
2022-12-18T09:15:41.852Z,31.33
2022-12-18T09:18:09.076Z,26.13
2022-12-18T09:20:36.983Z,41.63
2022-12-18T09:23:04.527Z,29.93
2022-12-18T09:25:33.435Z,30.63
2022-12-18T09:28:00.547Z,42.50
2022-12-18T09:30:28.529Z,39.87
2022-12-18T09:32:57.607Z,40.80
2022-12-18T09:35:24.867Z,27.77
2022-12-18T09:37:51.964Z,34.57
2022-12-18T09:40:22.202Z,45.40
2022-12-18T09:42:52.773Z,43.47
2022-12-18T09:45:19.805Z,45.20
2022-12-18T09:47:49.084Z,41.70
2022-12-18T09:50:25.234Z,31.50
2022-12-18T09:52:56.541Z,25.27
2022-12-18T09:55:37.221Z,22.80
2022-12-18T09:58:12.767Z,41.13
2022-12-18T10:00:42.649Z,40.07
2022-12-18T10:03:13.837Z,17.87
2022-12-18T10:05:47.694Z,26.80
2022-12-18T10:08:21.225Z,15.63
2022-12-18T10:10:52.556Z,29.97
2022-12-18T10:13:27.358Z,35.87
2022-12-18T10:16:09.885Z,25.10
2022-12-18T10:18:57.711Z,33.67
2022-12-18T10:21:31.049Z,26.67
2022-12-18T10:24:05.687Z,44.77
2022-12-18T10:26:39.457Z,23.70
2022-12-18T10:29:11.741Z,34.27
2022-12-18T10:31:39.953Z,49.33
2022-12-18T10:34:10.681Z,46.23
2022-12-18T10:36:37.632Z,46.87
2022-12-18T10:39:16.428Z,37.73
2022-12-18T10:41:43.932Z,25.33
2022-12-18T10:44:19.272Z,21.00
2022-12-18T10:46:46.885Z,35.70
2022-12-18T10:49:23.185Z,24.80
2022-12-18T10:51:50.648Z,33.47
2022-12-18T10:54:19.909Z,32.13
2022-12-18T10:56:47.831Z,16.90
2022-12-18T10:59:16.810Z,20.93
2022-12-18T11:02:25.736Z,21.43
2022-12-18T11:05:32.163Z,14.90
2022-12-18T11:08:00.366Z,15.53
2022-12-18T11:10:31.214Z,26.17
2022-12-18T11:13:16.550Z,18.97
2022-12-18T11:15:43.813Z,30.53
2022-12-18T11:18:20.405Z,35.77
2022-12-18T11:20:58.189Z,20.83
2022-12-18T11:23:25.696Z,15.40
2022-12-18T11:25:55.125Z,17.07
2022-12-18T11:28:48.497Z,22.30
2022-12-18T11:31:21.946Z,11.77
2022-12-18T11:34:28.521Z,21.87
2022-12-18T11:36:46.527Z,33.37
2022-12-18T11:39:19.003Z,39.77
2022-12-18T11:42:15.180Z,36.13
2022-12-18T11:44:50.513Z,25.40
2022-12-18T11:47:26.286Z,20.60
2022-12-18T11:49:53.259Z,36.23
2022-12-18T11:52:23.229Z,39.70
2022-12-18T11:54:52.361Z,39.00
2022-12-18T11:57:29.328Z,12.90
2022-12-18T12:00:02.327Z,35.17
2022-12-18T12:03:07.847Z,35.83
2022-12-18T12:05:48.837Z,24.10
2022-12-18T12:08:21.716Z,21.63
2022-12-18T12:11:00.473Z,33.73
2022-12-18T12:13:39.411Z,11.23
2022-12-18T12:16:15.934Z,21.30
2022-12-18T12:18:55.556Z,34.33
2022-12-18T12:21:29.251Z,27.27
2022-12-18T12:24:05.434Z,26.47
2022-12-18T12:26:39.813Z,24.30
2022-12-18T12:29:22.861Z,17.10
2022-12-18T12:32:05.654Z,26.57
2022-12-18T12:34:39.172Z,35.27
2022-12-18T12:44:31.747Z,27.03
2022-12-18T12:47:10.287Z,24.10
2022-12-18T12:49:41.192Z,26.87
2022-12-18T12:52:14.691Z,33.90
2022-12-18T12:54:43.195Z,30.70
2022-12-18T12:57:16.519Z,26.73
2022-12-18T12:59:49.604Z,19.93
2022-12-18T13:02:24.394Z,21.57
2022-12-18T13:04:58.886Z,19.47
2022-12-18T13:07:28.675Z,21.73
2022-12-18T13:10:41.102Z,26.73
2022-12-18T13:13:10.990Z,22.33
2022-12-18T13:15:41.587Z,7.97
2022-12-18T13:18:20.144Z,6.63
2022-12-18T13:20:55.260Z,20.13
2022-12-18T13:23:34.417Z,13.90
2022-12-18T13:26:32.603Z,25.43
2022-12-18T13:29:02.111Z,27.27
2022-12-18T13:32:10.007Z,26.63
2022-12-18T13:34:38.154Z,21.97
2022-12-18T13:37:41.761Z,11.70
2022-12-18T13:40:54.725Z,9.50
2022-12-18T13:43:40.489Z,12.70
2022-12-18T13:46:26.628Z,10.80
2022-12-18T13:49:00.779Z,31.33
2022-12-18T13:51:30.617Z,6.37
2022-12-18T13:54:00.508Z,9.47
2022-12-18T13:56:29.537Z,20.27
2022-12-18T13:59:25.975Z,9.03
2022-12-18T14:01:55.176Z,10.67
2022-12-18T14:04:30.777Z,16.73
2022-12-18T14:07:02.332Z,9.70
2022-12-18T14:09:31.828Z,12.97
2022-12-18T14:12:14.195Z,24.40
2022-12-18T14:14:43.895Z,12.93
2022-12-18T14:17:12.427Z,7.50
2022-12-18T14:19:44.610Z,11.37
2022-12-18T14:22:27.896Z,29.37
2022-12-18T14:25:15.461Z,8.43
2022-12-18T14:27:46.768Z,25.60
2022-12-18T14:30:32.976Z,22.53
2022-12-18T14:33:09.731Z,9.60
2022-12-18T14:35:38.327Z,21.37
2022-12-18T14:38:21.176Z,14.07
2022-12-18T14:40:48.125Z,11.37
2022-12-18T14:43:15.091Z,10.87
2022-12-18T14:45:43.585Z,16.40
2022-12-18T14:48:21.705Z,16.07
2022-12-18T14:50:59.133Z,7.73
2022-12-18T14:53:36.769Z,9.27
2022-12-18T14:56:11.898Z,8.03
2022-12-18T14:58:38.879Z,20.40
2022-12-18T15:01:06.220Z,9.73
2022-12-18T15:03:33.204Z,9.67
2022-12-18T15:06:18.936Z,9.50
2022-12-18T15:08:46.385Z,16.23
2022-12-18T15:11:46.817Z,29.47
2022-12-18T15:14:34.956Z,6.23
2022-12-18T15:17:04.108Z,11.33
2022-12-18T15:19:40.020Z,14.60
2022-12-18T15:22:26.437Z,14.50
2022-12-18T15:24:54.677Z,9.67
2022-12-18T15:27:29.025Z,15.77
2022-12-18T15:30:21.969Z,17.30
2022-12-18T15:32:50.947Z,19.60
2022-12-18T15:35:20.673Z,15.77
2022-12-18T15:37:47.821Z,14.70
2022-12-18T15:40:17.477Z,13.23
2022-12-18T15:43:03.129Z,6.47
2022-12-18T15:45:30.284Z,20.10
2022-12-18T15:47:57.273Z,7.07
2022-12-18T15:50:24.508Z,20.23
2022-12-18T15:52:52.856Z,10.77
2022-12-18T15:55:40.485Z,16.03
2022-12-18T15:58:10.039Z,6.97
2022-12-18T16:00:39.706Z,18.23
2022-12-18T16:03:07.062Z,10.80
2022-12-18T16:05:34.453Z,13.93
2022-12-18T16:08:01.359Z,9.70
2022-12-18T16:10:29.404Z,15.07
2022-12-18T16:12:56.876Z,15.67
2022-12-18T16:15:24.954Z,19.57
2022-12-18T16:17:52.513Z,9.33
2022-12-18T16:20:21.455Z,11.37
2022-12-18T16:22:48.450Z,7.87
2022-12-18T16:25:22.595Z,23.83
2022-12-18T16:27:50.666Z,14.90
2022-12-18T16:30:19.857Z,6.37
2022-12-18T16:32:46.936Z,15.63
2022-12-18T16:35:15.174Z,10.90
2022-12-18T16:37:44.046Z,11.00
2022-12-18T16:40:13.454Z,4.63
2022-12-18T16:42:41.837Z,17.13
2022-12-18T16:45:11.762Z,13.63
2022-12-18T16:47:38.841Z,10.67
2022-12-18T16:50:06.834Z,17.70
2022-12-18T16:52:33.829Z,8.80
2022-12-18T16:55:00.796Z,15.90
2022-12-18T16:57:27.980Z,12.30
2022-12-18T16:59:57.634Z,5.60
2022-12-18T17:02:28.476Z,10.23
2022-12-18T17:04:56.796Z,16.17
2022-12-18T17:07:24.353Z,15.27
2022-12-18T17:09:53.282Z,11.50
2022-12-18T17:12:20.614Z,14.60
2022-12-18T17:14:47.778Z,29.90
2022-12-18T17:17:23.353Z,34.20
2022-12-18T17:19:51.964Z,32.73
2022-12-18T17:22:19.244Z,18.60
2022-12-18T17:24:49.186Z,10.53
2022-12-18T17:27:16.300Z,7.37
2022-12-18T17:29:48.080Z,30.77
2022-12-18T17:32:15.602Z,9.60
2022-12-18T17:34:42.552Z,23.20
2022-12-18T17:37:10.106Z,12.97
2022-12-18T17:39:37.167Z,17.30
2022-12-18T17:42:04.310Z,11.27
2022-12-18T17:44:33.535Z,28.50
2022-12-18T17:47:00.603Z,19.30
2022-12-18T17:49:27.583Z,24.43
2022-12-18T17:51:57.970Z,16.93
2022-12-18T17:54:25.275Z,17.70
2022-12-18T17:56:52.252Z,16.53
2022-12-18T17:59:19.201Z,17.73
2022-12-18T18:01:46.396Z,15.60
2022-12-18T18:04:13.858Z,11.77
2022-12-18T18:06:41.692Z,17.77
2022-12-18T18:09:16.101Z,14.60
2022-12-18T18:12:03.705Z,11.40
2022-12-18T18:14:31.251Z,20.83
2022-12-18T18:17:01.122Z,15.27
2022-12-18T18:19:32.707Z,23.37
2022-12-18T18:22:00.661Z,18.73
2022-12-18T18:24:28.080Z,16.07
2022-12-18T18:26:59.294Z,37.17
2022-12-18T18:29:27.837Z,20.87
2022-12-18T18:31:56.204Z,16.90
2022-12-18T18:34:26.948Z,16.33
2022-12-18T18:36:54.018Z,18.83
2022-12-18T18:39:21.099Z,18.77
2022-12-18T18:41:48.877Z,15.13
2022-12-18T18:44:20.041Z,14.10
2022-12-18T18:46:48.903Z,5.33
2022-12-18T18:49:18.835Z,28.43
2022-12-18T18:51:45.784Z,16.77
2022-12-18T18:54:12.802Z,11.93
2022-12-18T18:59:30.296Z,12.80
2022-12-18T19:01:59.155Z,16.40
2022-12-18T19:04:26.301Z,6.17
2022-12-18T19:06:53.506Z,27.83
2022-12-18T19:09:41.009Z,21.80
2022-12-18T19:12:26.288Z,20.17
2022-12-18T19:14:55.007Z,18.60
2022-12-18T19:17:30.545Z,23.07
2022-12-18T19:19:57.698Z,15.07
2022-12-18T19:22:24.881Z,12.27
2022-12-18T19:24:52.853Z,34.43
2022-12-18T19:27:19.828Z,13.50
2022-12-18T19:29:49.952Z,8.57
2022-12-18T19:32:19.986Z,14.53
2022-12-18T19:34:47.334Z,20.13
2022-12-18T19:37:15.126Z,12.70
2022-12-18T19:39:42.236Z,18.83
2022-12-18T19:42:10.386Z,28.77
2022-12-18T19:44:39.729Z,12.57
2022-12-18T19:47:06.767Z,10.60
2022-12-18T19:49:34.286Z,26.40
2022-12-18T19:52:01.296Z,14.13
2022-12-18T19:54:29.542Z,12.33
2022-12-18T19:56:56.535Z,7.43
2022-12-18T19:59:23.479Z,10.57
2022-12-18T20:01:53.578Z,15.27
2022-12-18T20:04:21.634Z,13.10
2022-12-18T20:06:50.784Z,11.60
2022-12-18T20:09:18.146Z,10.03
2022-12-18T20:11:46.290Z,10.10
2022-12-18T20:14:15.243Z,16.53
2022-12-18T20:16:47.732Z,27.13
2022-12-18T20:19:15.198Z,22.30
2022-12-18T20:21:44.746Z,13.33
2022-12-18T20:24:12.671Z,10.90
2022-12-18T20:26:44.413Z,17.40
2022-12-18T20:29:11.397Z,14.27
2022-12-18T20:34:57.326Z,15.80
2022-12-18T20:37:25.588Z,15.77
2022-12-18T20:39:56.736Z,12.87
2022-12-18T20:42:25.054Z,13.70
2022-12-18T20:44:52.133Z,6.43
2022-12-18T20:47:19.111Z,15.77
2022-12-18T20:49:46.668Z,13.77
2022-12-18T20:52:13.741Z,18.27
2022-12-18T20:54:40.727Z,9.33
2022-12-18T20:57:10.825Z,14.87
2022-12-18T20:59:38.158Z,24.53
2022-12-18T21:02:11.322Z,20.57
2022-12-18T21:04:40.763Z,18.03
2022-12-18T21:07:07.685Z,14.17
2022-12-18T21:09:38.460Z,15.60
2022-12-18T21:12:47.607Z,14.63
2022-12-18T21:15:28.820Z,22.83
2022-12-18T21:17:56.028Z,25.23
2022-12-18T21:20:23.212Z,6.97
2022-12-18T21:22:50.266Z,17.47
2022-12-18T21:25:17.253Z,8.53
2022-12-18T21:27:44.931Z,10.17
2022-12-18T21:30:12.548Z,14.80
2022-12-18T21:32:39.516Z,21.07
2022-12-18T21:35:06.672Z,11.03
2022-12-18T21:37:33.608Z,18.43
2022-12-18T21:40:00.535Z,34.53
2022-12-18T21:42:46.007Z,7.57
2022-12-18T21:45:13.554Z,11.57
2022-12-18T21:47:40.493Z,6.33
2022-12-18T21:50:07.735Z,22.80
2022-12-18T21:52:37.968Z,26.20
2022-12-18T21:55:10.011Z,32.47
2022-12-18T21:57:37.674Z,11.27
2022-12-18T22:03:52.315Z,11.43
2022-12-18T22:06:19.456Z,13.17
2022-12-18T22:08:46.358Z,11.70
2022-12-18T22:11:13.469Z,17.83
2022-12-18T22:13:40.556Z,22.77
2022-12-18T22:16:12.763Z,20.00
2022-12-18T22:18:39.708Z,10.60
2022-12-18T22:21:08.400Z,13.73
2022-12-18T22:23:35.694Z,10.27
2022-12-18T22:26:05.200Z,12.20
2022-12-18T22:28:50.289Z,7.67
2022-12-18T22:31:18.292Z,9.10
2022-12-18T22:33:45.519Z,14.17
2022-12-18T22:36:15.547Z,6.70
2022-12-18T22:38:46.683Z,7.77
2022-12-18T22:41:14.418Z,11.33
2022-12-18T22:43:41.617Z,22.50
2022-12-18T22:46:12.577Z,27.80
2022-12-18T22:48:39.526Z,11.00
2022-12-18T22:51:12.891Z,13.03
2022-12-18T22:53:40.368Z,3.93
2022-12-18T22:56:09.938Z,7.03
2022-12-18T22:58:36.956Z,17.40
2022-12-18T23:01:04.132Z,9.87
2022-12-18T23:03:32.251Z,26.10
2022-12-18T23:06:04.068Z,9.50
2022-12-18T23:08:32.134Z,7.70
2022-12-18T23:11:03.411Z,6.37
2022-12-18T23:13:30.666Z,15.13
2022-12-18T23:15:57.809Z,10.60
2022-12-18T23:18:24.767Z,10.90
2022-12-18T23:20:51.730Z,12.13
2022-12-18T23:23:20.064Z,8.87
2022-12-18T23:25:47.010Z,9.67
2022-12-18T23:28:15.887Z,11.43
2022-12-18T23:30:42.818Z,18.43
2022-12-18T23:33:09.788Z,9.43
2022-12-18T23:35:36.886Z,8.43
2022-12-18T23:38:04.534Z,16.00
2022-12-18T23:40:32.612Z,21.30
2022-12-18T23:42:59.734Z,10.10
2022-12-18T23:45:27.230Z,10.83
2022-12-18T23:47:54.136Z,16.90
2022-12-18T23:50:29.747Z,11.23
2022-12-18T23:52:57.261Z,9.47
2022-12-18T23:55:30.211Z,9.90
2022-12-18T23:57:57.217Z,9.87
